Buoy 13526

sailwx.info

Track history (hours):
 
Tides and Currents Weather Stations Pressure Air Temp Water Temp Dewpoint Dewpoint Depression Visibility Wind Speed Wind Dir Waves Ship Positions

Drifting buoy 13526

Last reported at 2015-Aug-30 04:17 UTC. Time now 2015-Aug-30 05:55 UTC.
Position N 26°12' W 048°06'.

Water temperature 28.7 ° C

Date/timePositionNaut miles runAvg speedWind from/ knotsBaromVisibWave heightAir tempDewpointWater temp
2015-Aug-30 04:17N 26°12' W 048°06'0 0.1 28.7
2015-Aug-30 01:47N 26°12' W 048°06'0 0.3 28.7
2015-Aug-30 00:55N 26°12' W 048°06'0 0.1 28.8
2015-Aug-29 22:12N 26°12' W 048°06'1 0.4 28.9
2015-Aug-29 19:08N 26°13' W 048°07'0 0.0 29.1
2015-Aug-29 18:53N 26°13' W 048°07'0 0.6 29.1
2015-Aug-29 18:07N 26°13' W 048°07'2 0.3 29.1
2015-Aug-29 12:00N 26°14' W 048°09'116.7 28.6
2015-Aug-29 11:57N 26°13' W 048°10'0 0.0 28.6
2015-Aug-29 10:59N 26°13' W 048°10'0 0.2 28.6
2015-Aug-29 10:08N 26°13' W 048°10'1 0.3 28.6
2015-Aug-29 07:49N 26°13' W 048°10'0 0.1 28.7
2015-Aug-29 04:30N 26°13' W 048°10'0 0.8 29.0
2015-Aug-29 04:22N 26°13' W 048°10'0 0.1 29.0
2015-Aug-29 02:02N 26°12' W 048°10'0 0.1 29.1
2015-Aug-28 22:46N 26°12' W 048°10'0 0.1
2015-Aug-28 21:02N 26°12' W 048°10'0 0.4 29.4
2015-Aug-28 20:02N 26°13' W 048°10'1 6.0 29.6
2015-Aug-28 19:54N 26°13' W 048°10'1 0.1 29.6
2015-Aug-28 16:04N 26°14' W 048°10'1 0.6 29.4
2015-Aug-28 14:49N 26°14' W 048°11'0 0.0 29.4
2015-Aug-28 14:08N 26°14' W 048°11'0 0.0 29.2
2015-Aug-28 14:05N 26°14' W 048°11'0 0.2 29.2
2015-Aug-28 12:25N 26°14' W 048°11'1 0.3 29.0
2015-Aug-28 09:46N 26°15' W 048°12'0 0.2 28.8
2015-Aug-28 08:04N 26°14' W 048°13'0 0.3 28.9
2015-Aug-28 06:58N 26°15' W 048°13'0 0.1 28.9
2015-Aug-28 06:16N 26°15' W 048°13'0 0.0 28.9
2015-Aug-28 04:44N 26°15' W 048°13'0 4.9 29.0
2015-Aug-28 04:40N 26°15' W 048°13'0 4.1 29.0
2015-Aug-28 04:36N 26°15' W 048°13'0 0.0 29.0
2015-Aug-28 02:24N 26°15' W 048°13'0 0.0 29.1
2015-Aug-28 01:40N 26°15' W 048°13'0 0.4 29.2
2015-Aug-28 00:49N 26°15' W 048°14'0 0.2 29.2
2015-Aug-28 00:03N 26°15' W 048°14'0 1.6 29.2
2015-Aug-27 23:54N 26°15' W 048°14'0 0.0 29.3
2015-Aug-27 23:08N 26°15' W 048°14'0 4.1 29.4
2015-Aug-27 23:03N 26°15' W 048°13'1 0.3 29.4
2015-Aug-27 20:14N 26°15' W 048°14'0 0.7 30.0
2015-Aug-27 19:47N 26°15' W 048°14'0 0.3 30.0
2015-Aug-27 17:55N 26°15' W 048°14'0 3.9 30.0
2015-Aug-27 17:50N 26°16' W 048°14'0 0.1 30.0
2015-Aug-27 16:09N 26°15' W 048°14'1 0.2 30.3
2015-Aug-27 10:09N 26°16' W 048°16'0 0.1 28.8
2015-Aug-27 08:38N 26°16' W 048°15'0 0.1 28.8
2015-Aug-27 07:12N 26°16' W 048°16'0 3.9 28.8
2015-Aug-27 07:08N 26°16' W 048°16'2 0.3 28.8
2015-Aug-27 01:58N 26°18' W 048°17'1 0.2 29.2
2015-Aug-26 22:04N 26°17' W 048°17'0 1.7 29.7
2015-Aug-26 21:50N 26°17' W 048°18'1 0.4 29.7
2015-Aug-26 20:07N 26°17' W 048°18'0 0.1 30.2
2015-Aug-26 18:07N 26°17' W 048°18'1 0.2 30.4
2015-Aug-26 14:47N 26°18' W 048°19'0 0.5 29.2
2015-Aug-26 13:53N 26°17' W 048°18'0 0.3 28.9
2015-Aug-26 13:02N 26°17' W 048°19'0 0.1 28.7
2015-Aug-26 09:00N 26°18' W 048°19'0 3.2 28.5
2015-Aug-26 08:54N 26°18' W 048°19'0 0.1
2015-Aug-26 05:02N 26°18' W 048°19'113.0 28.6
2015-Aug-26 04:58N 26°19' W 048°19'1 0.2 28.6
2015-Aug-26 00:43N 26°19' W 048°20'0 0.0 28.8
2015-Aug-25 23:50N 26°19' W 048°20'1 1.1 29.0
2015-Aug-25 23:00N 26°20' W 048°21'0 0.1 29.0
2015-Aug-25 20:36N 26°20' W 048°21'0 0.5 29.5
2015-Aug-25 20:19N 26°20' W 048°21'0 2.6 29.5
2015-Aug-25 20:09N 26°20' W 048°21'0 0.0
2015-Aug-25 18:55N 26°20' W 048°21'0 0.1 29.7
2015-Aug-25 11:47N 26°19' W 048°21'0 4.2 28.4
2015-Aug-25 11:44N 26°19' W 048°21'0 0.2 28.4
2015-Aug-25 10:54N 26°19' W 048°21'0 0.0 28.4
2015-Aug-25 10:52N 26°19' W 048°21'0 0.0 28.4
2015-Aug-25 09:08N 26°19' W 048°21'0 9.7 28.4
2015-Aug-25 09:06N 26°19' W 048°21'0 0.1 28.4
2015-Aug-25 06:54N 26°19' W 048°21'0 0.2 28.4
2015-Aug-25 05:15N 26°19' W 048°21'1 7.2 28.4
2015-Aug-25 05:07N 26°20' W 048°21'0 0.0 28.5
2015-Aug-25 01:49N 26°20' W 048°21'0 7.2 28.5
2015-Aug-25 01:45N 26°20' W 048°20'1 1.0 28.5
2015-Aug-25 01:05N 26°20' W 048°21'1 0.7 28.5
2015-Aug-25 00:08N 26°21' W 048°21'2 2.2 28.5
2015-Aug-24 23:16N 26°21' W 048°23'0 0.0 28.5
2015-Aug-24 21:01N 26°21' W 048°23'1 3.6 28.5
2015-Aug-24 20:49N 26°21' W 048°24'0 0.1 28.5
2015-Aug-24 19:06N 26°21' W 048°23'1 0.4 28.6
2015-Aug-24 15:04N 26°20' W 048°25'0 0.0 28.5
2015-Aug-24 13:50N 26°20' W 048°25'1 0.3 28.4
2015-Aug-24 12:07N 26°20' W 048°24'0 0.2 28.4
2015-Aug-24 11:08N 26°20' W 048°24'0 0.1 28.4
2015-Aug-24 08:33N 26°20' W 048°24'0 0.5 28.4
2015-Aug-24 08:04N 26°20' W 048°25'1 0.2 28.4
2015-Aug-24 02:05N 26°19' W 048°23'1 0.3 28.4
2015-Aug-23 22:50N 26°20' W 048°23'1 0.3 28.5
2015-Aug-23 20:55N 26°21' W 048°23'1 0.4 28.5
2015-Aug-23 19:17N 26°21' W 048°23'0 2.4 28.6
2015-Aug-23 19:08N 26°21' W 048°23'1 0.5 28.7
2015-Aug-23 17:01N 26°21' W 048°25'0 3.2 28.6
2015-Aug-23 16:54N 26°21' W 048°24'0 0.0 28.6
2015-Aug-23 14:53N 26°21' W 048°24'0 0.0 28.5
2015-Aug-23 14:09N 26°21' W 048°24'1 3.9 28.5
2015-Aug-23 14:01N 26°21' W 048°25'0 0.1 28.5
2015-Aug-23 10:08N 26°20' W 048°25'0 0.2 28.4
2015-Aug-23 07:55N 26°20' W 048°26'1 1.6 28.4
2015-Aug-23 07:10N 26°19' W 048°25'2 0.5 28.5
2015-Aug-23 03:54N 26°18' W 048°24'0 0.1 28.6
2015-Aug-23 01:44N 26°18' W 048°24'1 0.7 28.7
2015-Aug-23 00:50N 26°19' W 048°24'0 0.5 28.7
2015-Aug-23 00:05N 26°19' W 048°23'0 0.0 28.7
2015-Aug-23 00:02N 26°19' W 048°23'1 1.2 28.7
2015-Aug-22 23:06N 26°20' W 048°23'0 0.4 28.8
2015-Aug-22 21:49N 26°20' W 048°24'1 1.1 28.8
2015-Aug-22 21:09N 26°20' W 048°23'014.8 28.8
2015-Aug-22 21:08N 26°20' W 048°23'1 1.1 28.8
2015-Aug-22 20:08N 26°20' W 048°24'1 0.9 28.8
2015-Aug-22 18:51N 26°21' W 048°25'1 0.5 28.9
2015-Aug-22 17:08N 26°21' W 048°24'2 0.3 28.9
2015-Aug-22 11:54N 26°20' W 048°26'0 2.6 28.5
2015-Aug-22 11:51N 26°20' W 048°26'1 0.3 28.5
2015-Aug-22 09:51N 26°20' W 048°27'0 0.1 28.4
2015-Aug-22 08:07N 26°20' W 048°27'0 2.7 28.5
2015-Aug-22 08:01N 26°20' W 048°27'2 2.1 28.5
2015-Aug-22 07:12N 26°18' W 048°27'1 0.2 28.5
2015-Aug-22 04:08N 26°19' W 048°27'1 0.3 28.6
2015-Aug-22 02:04N 26°19' W 048°27'2 0.4 28.7
2015-Aug-21 22:09N 26°20' W 048°26'1 0.5
2015-Aug-21 19:01N 26°22' W 048°26'1 0.2 32.0
2015-Aug-21 14:49N 26°22' W 048°27'0 0.2 30.2
2015-Aug-21 13:54N 26°22' W 048°27'0 0.2 30.0
2015-Aug-21 12:14N 26°22' W 048°28'0 2.4 29.2
2015-Aug-21 12:08N 26°23' W 048°28'1 0.6 29.1
2015-Aug-21 10:58N 26°23' W 048°29'0 0.4 28.5
2015-Aug-21 10:02N 26°23' W 048°28'0 6.4 28.4
2015-Aug-21 09:58N 26°23' W 048°28'1 9.7 28.4
2015-Aug-21 09:53N 26°23' W 048°29'0 0.0 28.4
2015-Aug-21 09:15N 26°23' W 048°29'0 0.0 28.4
2015-Aug-21 08:26N 26°23' W 048°29'0 1.2 28.4
2015-Aug-21 08:15N 26°23' W 048°29'0 4.0 28.4
2015-Aug-21 08:12N 26°23' W 048°29'0 0.1 28.4
2015-Aug-21 05:59N 26°23' W 048°29'0 2.4 28.5
2015-Aug-21 05:52N 26°23' W 048°29'0 0.0 28.5
2015-Aug-21 04:19N 26°23' W 048°29'1 0.2 28.5
2015-Aug-21 01:33N 26°23' W 048°30'0 3.3 28.6
2015-Aug-21 01:27N 26°23' W 048°30'0 0.2 28.6
2015-Aug-20 23:54N 26°22' W 048°30'1 1.2 28.8
2015-Aug-20 23:05N 26°23' W 048°29'0 0.1 28.8
2015-Aug-20 20:59N 26°23' W 048°30'0 1.3 28.9
2015-Aug-20 20:54N 26°23' W 048°29'0 0.5 28.9
2015-Aug-20 19:54N 26°24' W 048°29'1 1.1 29.0
2015-Aug-20 19:08N 26°24' W 048°30'1 0.2 29.1
2015-Aug-20 15:52N 26°25' W 048°30'1 0.2 28.9
2015-Aug-20 11:50N 26°26' W 048°31'1 0.5 28.4
2015-Aug-20 10:35N 26°26' W 048°31'0 0.2 28.3
2015-Aug-20 10:15N 26°26' W 048°31'0 2.6 28.3
2015-Aug-20 10:04N 26°26' W 048°31'1 0.3 28.3
2015-Aug-20 08:03N 26°26' W 048°31'0 1.2 28.3
2015-Aug-20 07:51N 26°27' W 048°31'1 0.4 28.3
2015-Aug-20 06:08N 26°27' W 048°32'0 4.6 28.3
2015-Aug-20 06:03N 26°27' W 048°32'   28.3
Track history (hours):
 
Tides and Currents Weather Stations Pressure Air Temp Water Temp Dewpoint Dewpoint Depression Visibility Wind Speed Wind Dir Waves Ship Positions

Drifting buoy 13526

Last reported at 2015-Aug-30 04:17 UTC. Time now 2015-Aug-30 05:55 UTC.
Position N 26°12' W 048°06'.

Water temperature 28.7 ° C

Date/timePositionNaut miles runAvg speedWind from/ knotsBaromVisibWave heightAir tempDewpointWater temp
2015-Aug-30 04:17N 26°12' W 048°06'0 0.1 28.7
2015-Aug-30 01:47N 26°12' W 048°06'0 0.3 28.7
2015-Aug-30 00:55N 26°12' W 048°06'0 0.1 28.8
2015-Aug-29 22:12N 26°12' W 048°06'1 0.4 28.9
2015-Aug-29 19:08N 26°13' W 048°07'0 0.0 29.1
2015-Aug-29 18:53N 26°13' W 048°07'0 0.6 29.1
2015-Aug-29 18:07N 26°13' W 048°07'2 0.3 29.1
2015-Aug-29 12:00N 26°14' W 048°09'116.7 28.6
2015-Aug-29 11:57N 26°13' W 048°10'0 0.0 28.6
2015-Aug-29 10:59N 26°13' W 048°10'0 0.2 28.6
2015-Aug-29 10:08N 26°13' W 048°10'1 0.3 28.6
2015-Aug-29 07:49N 26°13' W 048°10'0 0.1 28.7
2015-Aug-29 04:30N 26°13' W 048°10'0 0.8 29.0
2015-Aug-29 04:22N 26°13' W 048°10'0 0.1 29.0
2015-Aug-29 02:02N 26°12' W 048°10'0 0.1 29.1
2015-Aug-28 22:46N 26°12' W 048°10'0 0.1
2015-Aug-28 21:02N 26°12' W 048°10'0 0.4 29.4
2015-Aug-28 20:02N 26°13' W 048°10'1 6.0 29.6
2015-Aug-28 19:54N 26°13' W 048°10'1 0.1 29.6
2015-Aug-28 16:04N 26°14' W 048°10'1 0.6 29.4
2015-Aug-28 14:49N 26°14' W 048°11'0 0.0 29.4
2015-Aug-28 14:08N 26°14' W 048°11'0 0.0 29.2
2015-Aug-28 14:05N 26°14' W 048°11'0 0.2 29.2
2015-Aug-28 12:25N 26°14' W 048°11'1 0.3 29.0
2015-Aug-28 09:46N 26°15' W 048°12'0 0.2 28.8
2015-Aug-28 08:04N 26°14' W 048°13'0 0.3 28.9
2015-Aug-28 06:58N 26°15' W 048°13'0 0.1 28.9
2015-Aug-28 06:16N 26°15' W 048°13'0 0.0 28.9
2015-Aug-28 04:44N 26°15' W 048°13'0 4.9 29.0
2015-Aug-28 04:40N 26°15' W 048°13'0 4.1 29.0
2015-Aug-28 04:36N 26°15' W 048°13'0 0.0 29.0
2015-Aug-28 02:24N 26°15' W 048°13'0 0.0 29.1
2015-Aug-28 01:40N 26°15' W 048°13'0 0.4 29.2
2015-Aug-28 00:49N 26°15' W 048°14'0 0.2 29.2
2015-Aug-28 00:03N 26°15' W 048°14'0 1.6 29.2
2015-Aug-27 23:54N 26°15' W 048°14'0 0.0 29.3
2015-Aug-27 23:08N 26°15' W 048°14'0 4.1 29.4
2015-Aug-27 23:03N 26°15' W 048°13'1 0.3 29.4
2015-Aug-27 20:14N 26°15' W 048°14'0 0.7 30.0
2015-Aug-27 19:47N 26°15' W 048°14'0 0.3 30.0
2015-Aug-27 17:55N 26°15' W 048°14'0 3.9 30.0
2015-Aug-27 17:50N 26°16' W 048°14'0 0.1 30.0
2015-Aug-27 16:09N 26°15' W 048°14'1 0.2 30.3
2015-Aug-27 10:09N 26°16' W 048°16'0 0.1 28.8
2015-Aug-27 08:38N 26°16' W 048°15'0 0.1 28.8
2015-Aug-27 07:12N 26°16' W 048°16'0 3.9 28.8
2015-Aug-27 07:08N 26°16' W 048°16'2 0.3 28.8
2015-Aug-27 01:58N 26°18' W 048°17'1 0.2 29.2
2015-Aug-26 22:04N 26°17' W 048°17'0 1.7 29.7
2015-Aug-26 21:50N 26°17' W 048°18'1 0.4 29.7
2015-Aug-26 20:07N 26°17' W 048°18'0 0.1 30.2
2015-Aug-26 18:07N 26°17' W 048°18'1 0.2 30.4
2015-Aug-26 14:47N 26°18' W 048°19'0 0.5 29.2
2015-Aug-26 13:53N 26°17' W 048°18'0 0.3 28.9
2015-Aug-26 13:02N 26°17' W 048°19'0 0.1 28.7
2015-Aug-26 09:00N 26°18' W 048°19'0 3.2 28.5
2015-Aug-26 08:54N 26°18' W 048°19'0 0.1
2015-Aug-26 05:02N 26°18' W 048°19'113.0 28.6
2015-Aug-26 04:58N 26°19' W 048°19'1 0.2 28.6
2015-Aug-26 00:43N 26°19' W 048°20'0 0.0 28.8
2015-Aug-25 23:50N 26°19' W 048°20'1 1.1 29.0
2015-Aug-25 23:00N 26°20' W 048°21'0 0.1 29.0
2015-Aug-25 20:36N 26°20' W 048°21'0 0.5 29.5
2015-Aug-25 20:19N 26°20' W 048°21'0 2.6 29.5
2015-Aug-25 20:09N 26°20' W 048°21'0 0.0
2015-Aug-25 18:55N 26°20' W 048°21'0 0.1 29.7
2015-Aug-25 11:47N 26°19' W 048°21'0 4.2 28.4
2015-Aug-25 11:44N 26°19' W 048°21'0 0.2 28.4
2015-Aug-25 10:54N 26°19' W 048°21'0 0.0 28.4
2015-Aug-25 10:52N 26°19' W 048°21'0 0.0 28.4
2015-Aug-25 09:08N 26°19' W 048°21'0 9.7 28.4
2015-Aug-25 09:06N 26°19' W 048°21'0 0.1 28.4
2015-Aug-25 06:54N 26°19' W 048°21'0 0.2 28.4
2015-Aug-25 05:15N 26°19' W 048°21'1 7.2 28.4
2015-Aug-25 05:07N 26°20' W 048°21'0 0.0 28.5
2015-Aug-25 01:49N 26°20' W 048°21'0 7.2 28.5
2015-Aug-25 01:45N 26°20' W 048°20'1 1.0 28.5
2015-Aug-25 01:05N 26°20' W 048°21'1 0.7 28.5
2015-Aug-25 00:08N 26°21' W 048°21'2 2.2 28.5
2015-Aug-24 23:16N 26°21' W 048°23'0 0.0 28.5
2015-Aug-24 21:01N 26°21' W 048°23'1 3.6 28.5
2015-Aug-24 20:49N 26°21' W 048°24'0 0.1 28.5
2015-Aug-24 19:06N 26°21' W 048°23'1 0.4 28.6
2015-Aug-24 15:04N 26°20' W 048°25'0 0.0 28.5
2015-Aug-24 13:50N 26°20' W 048°25'1 0.3 28.4
2015-Aug-24 12:07N 26°20' W 048°24'0 0.2 28.4
2015-Aug-24 11:08N 26°20' W 048°24'0 0.1 28.4
2015-Aug-24 08:33N 26°20' W 048°24'0 0.5 28.4
2015-Aug-24 08:04N 26°20' W 048°25'1 0.2 28.4
2015-Aug-24 02:05N 26°19' W 048°23'1 0.3 28.4
2015-Aug-23 22:50N 26°20' W 048°23'1 0.3 28.5
2015-Aug-23 20:55N 26°21' W 048°23'1 0.4 28.5
2015-Aug-23 19:17N 26°21' W 048°23'0 2.4 28.6
2015-Aug-23 19:08N 26°21' W 048°23'1 0.5 28.7
2015-Aug-23 17:01N 26°21' W 048°25'0 3.2 28.6
2015-Aug-23 16:54N 26°21' W 048°24'0 0.0 28.6
2015-Aug-23 14:53N 26°21' W 048°24'0 0.0 28.5
2015-Aug-23 14:09N 26°21' W 048°24'1 3.9 28.5
2015-Aug-23 14:01N 26°21' W 048°25'0 0.1 28.5
2015-Aug-23 10:08N 26°20' W 048°25'0 0.2 28.4
2015-Aug-23 07:55N 26°20' W 048°26'1 1.6 28.4
2015-Aug-23 07:10N 26°19' W 048°25'2 0.5 28.5
2015-Aug-23 03:54N 26°18' W 048°24'0 0.1 28.6
2015-Aug-23 01:44N 26°18' W 048°24'1 0.7 28.7
2015-Aug-23 00:50N 26°19' W 048°24'0 0.5 28.7
2015-Aug-23 00:05N 26°19' W 048°23'0 0.0 28.7
2015-Aug-23 00:02N 26°19' W 048°23'1 1.2 28.7
2015-Aug-22 23:06N 26°20' W 048°23'0 0.4 28.8
2015-Aug-22 21:49N 26°20' W 048°24'1 1.1 28.8
2015-Aug-22 21:09N 26°20' W 048°23'014.8 28.8
2015-Aug-22 21:08N 26°20' W 048°23'1 1.1 28.8
2015-Aug-22 20:08N 26°20' W 048°24'1 0.9 28.8
2015-Aug-22 18:51N 26°21' W 048°25'1 0.5 28.9
2015-Aug-22 17:08N 26°21' W 048°24'2 0.3 28.9
2015-Aug-22 11:54N 26°20' W 048°26'0 2.6 28.5
2015-Aug-22 11:51N 26°20' W 048°26'1 0.3 28.5
2015-Aug-22 09:51N 26°20' W 048°27'0 0.1 28.4
2015-Aug-22 08:07N 26°20' W 048°27'0 2.7 28.5
2015-Aug-22 08:01N 26°20' W 048°27'2 2.1 28.5
2015-Aug-22 07:12N 26°18' W 048°27'1 0.2 28.5
2015-Aug-22 04:08N 26°19' W 048°27'1 0.3 28.6
2015-Aug-22 02:04N 26°19' W 048°27'2 0.4 28.7
2015-Aug-21 22:09N 26°20' W 048°26'1 0.5
2015-Aug-21 19:01N 26°22' W 048°26'1 0.2 32.0
2015-Aug-21 14:49N 26°22' W 048°27'0 0.2 30.2
2015-Aug-21 13:54N 26°22' W 048°27'0 0.2 30.0
2015-Aug-21 12:14N 26°22' W 048°28'0 2.4 29.2
2015-Aug-21 12:08N 26°23' W 048°28'1 0.6 29.1
2015-Aug-21 10:58N 26°23' W 048°29'0 0.4 28.5
2015-Aug-21 10:02N 26°23' W 048°28'0 6.4 28.4
2015-Aug-21 09:58N 26°23' W 048°28'1 9.7 28.4
2015-Aug-21 09:53N 26°23' W 048°29'0 0.0 28.4
2015-Aug-21 09:15N 26°23' W 048°29'0 0.0 28.4
2015-Aug-21 08:26N 26°23' W 048°29'0 1.2 28.4
2015-Aug-21 08:15N 26°23' W 048°29'0 4.0 28.4
2015-Aug-21 08:12N 26°23' W 048°29'0 0.1 28.4
2015-Aug-21 05:59N 26°23' W 048°29'0 2.4 28.5
2015-Aug-21 05:52N 26°23' W 048°29'0 0.0 28.5
2015-Aug-21 04:19N 26°23' W 048°29'1 0.2 28.5
2015-Aug-21 01:33N 26°23' W 048°30'0 3.3 28.6
2015-Aug-21 01:27N 26°23' W 048°30'0 0.2 28.6
2015-Aug-20 23:54N 26°22' W 048°30'1 1.2 28.8
2015-Aug-20 23:05N 26°23' W 048°29'0 0.1 28.8
2015-Aug-20 20:59N 26°23' W 048°30'0 1.3 28.9
2015-Aug-20 20:54N 26°23' W 048°29'0 0.5 28.9
2015-Aug-20 19:54N 26°24' W 048°29'1 1.1 29.0
2015-Aug-20 19:08N 26°24' W 048°30'1 0.2 29.1
2015-Aug-20 15:52N 26°25' W 048°30'1 0.2 28.9
2015-Aug-20 11:50N 26°26' W 048°31'1 0.5 28.4
2015-Aug-20 10:35N 26°26' W 048°31'0 0.2 28.3
2015-Aug-20 10:15N 26°26' W 048°31'0 2.6 28.3
2015-Aug-20 10:04N 26°26' W 048°31'1 0.3 28.3
2015-Aug-20 08:03N 26°26' W 048°31'0 1.2 28.3
2015-Aug-20 07:51N 26°27' W 048°31'1 0.4 28.3
2015-Aug-20 06:08N 26°27' W 048°32'0 4.6 28.3
2015-Aug-20 06:03N 26°27' W 048°32'   28.3

Dump ship's entire track history